Time;durP1;ratioP1;P1;durP2;ratioP2;P2;SDS_P1;SDS_P2;PMS_P1;PMS_P2;Temp;Humidity;BMP_temperature;BMP_pressure;BME280_temperature;BME280_humidity;BME280_pressure;Samples;Min_cycle;Max_cycle;Signal;HPM_P1;HPM_P2
2021/11/19 00:02:22;;;;;;;69.60;35.10;;;;;;;2.82;86.14;99709.73;106211;1316;141505;-64
2021/11/19 00:04:50;;;;;;;68.30;35.90;;;;;;;2.80;86.04;99706.12;106196;1322;22468;-64
2021/11/19 00:07:18;;;;;;;73.60;36.80;;;;;;;2.79;86.10;99702.85;105744;1317;137585;-64
2021/11/19 00:09:46;;;;;;;68.40;35.90;;;;;;;2.76;86.06;99702.80;106241;1316;22596;-63
2021/11/19 00:12:14;;;;;;;84.10;39.50;;;;;;;2.75;86.15;99704.02;106334;1316;22452;-63
2021/11/19 00:14:42;;;;;;;72.00;36.10;;;;;;;2.73;86.08;99697.75;105144;1321;138527;-63
2021/11/19 00:17:10;;;;;;;70.20;36.60;;;;;;;2.73;86.11;99699.34;106231;1315;23048;-63
2021/11/19 00:19:40;;;;;;;73.00;35.20;;;;;;;2.72;86.10;99698.05;106130;1320;138201;-63
2021/11/19 00:22:09;;;;;;;71.60;38.00;;;;;;;2.70;86.10;99694.11;106225;1316;22246;-63
2021/11/19 00:24:37;;;;;;;66.20;35.10;;;;;;;2.69;86.04;99696.22;106038;1315;137908;-63
2021/11/19 00:27:06;;;;;;;72.50;35.30;;;;;;;2.69;86.10;99700.98;106213;1315;22437;-63
2021/11/19 00:29:34;;;;;;;67.00;35.70;;;;;;;2.67;86.11;99696.50;106175;1316;22480;-63
2021/11/19 00:32:04;;;;;;;66.20;33.40;;;;;;;2.66;86.20;99692.69;106110;1315;138605;-63
2021/11/19 00:34:32;;;;;;;62.80;32.30;;;;;;;2.66;86.29;99692.77;106226;1315;23003;-63
2021/11/19 00:37:00;;;;;;;62.80;34.10;;;;;;;2.66;86.45;99688.38;106090;1315;138093;-63
2021/11/19 00:39:28;;;;;;;63.00;33.10;;;;;;;2.67;86.43;99687.02;105638;1315;22598;-63
2021/11/19 00:41:57;;;;;;;60.10;32.80;;;;;;;2.68;86.52;99681.31;102195;1320;25412;-63
2021/11/19 00:44:26;;;;;;;61.20;31.40;;;;;;;2.69;86.59;99679.20;105923;1320;137789;-63
2021/11/19 00:46:55;;;;;;;57.40;29.90;;;;;;;2.71;86.73;99677.14;106146;1318;22379;-64
2021/11/19 00:49:26;;;;;;;66.90;33.00;;;;;;;2.73;86.85;99678.89;106075;1315;139651;-64
2021/11/19 00:51:55;;;;;;;59.20;30.40;;;;;;;2.75;86.87;99674.23;106258;1316;22457;-64
2021/11/19 00:54:24;;;;;;;59.10;32.00;;;;;;;2.77;87.04;99670.02;106131;1315;139756;-64
2021/11/19 00:56:57;;;;;;;56.40;31.60;;;;;;;2.77;86.98;99659.27;106259;1315;22520;-64
2021/11/19 00:59:28;;;;;;;56.10;30.20;;;;;;;2.81;87.00;99658.45;106293;1315;23654;-63
2021/11/19 01:02:00;;;;;;;57.50;29.90;;;;;;;2.82;87.08;99653.98;106174;1319;139406;-63
2021/11/19 01:04:29;;;;;;;57.80;30.50;;;;;;;2.84;87.26;99654.20;106194;1318;22515;-62
2021/11/19 01:06:58;;;;;;;59.20;31.20;;;;;;;2.88;87.09;99654.90;106029;1318;139182;-62
2021/11/19 01:09:29;;;;;;;57.10;29.30;;;;;;;2.87;87.27;99651.83;106172;1318;22486;-63
2021/11/19 01:11:58;;;;;;;55.40;29.70;;;;;;;2.90;87.22;99647.73;106190;1318;23480;-64
2021/11/19 01:14:42;;;;;;;53.30;29.40;;;;;;;2.90;87.19;99645.20;105873;1321;139550;-64
2021/11/19 01:17:29;;;;;;;51.30;29.30;;;;;;;2.92;87.33;99645.12;106014;1319;22559;-64
2021/11/19 01:20:10;;;;;;;50.90;29.20;;;;;;;2.93;87.25;99640.16;105915;1318;138040;-64
2021/11/19 01:22:40;;;;;;;55.30;30.70;;;;;;;2.95;87.41;99633.08;106046;1321;22272;-64
2021/11/19 01:25:11;;;;;;;52.50;30.20;;;;;;;2.97;87.23;99628.29;105862;1319;139952;-64
2021/11/19 01:27:40;;;;;;;54.70;31.20;;;;;;;2.97;87.25;99623.31;105905;1318;22606;-63
2021/11/19 01:30:12;;;;;;;59.40;32.00;;;;;;;3.00;87.38;99625.93;105999;1319;23006;-64
2021/11/19 01:32:40;;;;;;;51.60;30.00;;;;;;;3.01;87.34;99627.80;105871;1316;139123;-64
2021/11/19 01:35:08;;;;;;;52.40;29.50;;;;;;;3.00;87.27;99626.60;106132;1318;22781;-64
2021/11/19 01:37:50;;;;;;;50.80;28.90;;;;;;;3.00;87.15;99620.68;105968;1320;140249;-64
2021/11/19 01:40:44;;;;;;;48.80;28.80;;;;;;;3.01;87.06;99620.89;103250;1319;26324;-65
2021/11/19 01:43:34;;;;;;;54.60;28.40;;;;;;;3.02;87.15;99616.28;105429;1319;138674;-64
2021/11/19 01:46:04;;;;;;;53.10;27.20;;;;;;;3.02;87.03;99613.69;105762;1316;23544;-64
2021/11/19 01:48:39;;;;;;;57.30;29.30;;;;;;;3.01;86.98;99609.63;106262;1316;140157;-63
2021/11/19 01:51:23;;;;;;;53.00;27.90;;;;;;;3.00;87.02;99606.89;106196;1315;23299;-63
2021/11/19 01:54:11;;;;;;;51.90;28.00;;;;;;;3.00;87.00;99605.11;106130;1315;22474;-63
2021/11/19 01:56:46;;;;;;;47.20;27.20;;;;;;;3.00;87.02;99606.31;106158;1316;138328;-63
2021/11/19 01:59:40;;;;;;;44.50;27.80;;;;;;;3.01;87.10;99604.61;105306;1321;22467;-63
2021/11/19 02:02:11;;;;;;;51.40;25.60;;;;;;;3.01;87.11;99600.98;106192;1316;137787;-63
2021/11/19 02:04:52;;;;;;;42.70;25.30;;;;;;;3.02;87.14;99596.42;106224;1316;23274;-63
2021/11/19 02:07:25;;;;;;;47.20;25.20;;;;;;;3.03;87.10;99598.77;106033;1316;138706;-64
2021/11/19 02:10:47;;;;;;;39.70;24.70;;;;;;;3.04;87.10;99595.06;106190;1316;22497;-63
2021/11/19 02:13:22;;;;;;;43.40;24.30;;;;;;;3.05;87.16;99593.73;106146;1316;138007;-63
2021/11/19 02:15:55;;;;;;;40.80;24.20;;;;;;;3.07;87.14;99589.03;106168;1318;22483;-64
2021/11/19 02:18:31;;;;;;;42.30;24.10;;;;;;;3.08;87.32;99586.75;106103;1319;137982;-63
2021/11/19 02:21:20;;;;;;;44.60;23.60;;;;;;;3.10;87.12;99580.63;106367;1316;22834;-64
2021/11/19 02:24:04;;;;;;;39.10;23.20;;;;;;;3.10;87.10;99578.97;106200;1319;22533;-64
2021/11/19 02:26:43;;;;;;;34.20;20.70;;;;;;;3.10;87.06;99578.67;106113;1317;137781;-64
2021/11/19 02:29:12;;;;;;;37.30;21.40;;;;;;;3.12;87.11;99586.34;106023;1316;22538;-64
2021/11/19 02:31:51;;;;;;;37.80;22.20;;;;;;;3.13;87.23;99584.06;106124;1321;138044;-64
2021/11/19 02:34:20;;;;;;;35.30;20.30;;;;;;;3.14;87.08;99589.91;106202;1316;22486;-64
2021/11/19 02:37:04;;;;;;;35.80;20.40;;;;;;;3.14;86.87;99584.61;106099;1316;138467;-63
2021/11/19 02:39:52;;;;;;;37.80;20.10;;;;;;;3.15;86.79;99575.86;106231;1316;22460;-63
2021/11/19 02:42:22;;;;;;;32.10;20.50;;;;;;;3.14;86.73;99569.08;106305;1316;22435;-64
2021/11/19 02:44:51;;;;;;;32.90;19.10;;;;;;;3.13;86.58;99568.70;106272;1316;138956;-64
2021/11/19 02:47:24;;;;;;;33.40;17.40;;;;;;;3.11;86.46;99570.60;106238;1316;22502;-63
2021/11/19 02:49:55;;;;;;;27.10;17.00;;;;;;;3.08;86.45;99575.61;106256;1316;138026;-63
2021/11/19 02:52:34;;;;;;;32.60;18.10;;;;;;;3.06;86.28;99577.23;106261;1316;22463;-64
2021/11/19 02:55:06;;;;;;;29.80;17.60;;;;;;;3.03;86.25;99576.48;106019;1316;138237;-63
2021/11/19 02:57:34;;;;;;;37.60;19.00;;;;;;;3.01;86.01;99575.21;106233;1316;22606;-63
2021/11/19 03:00:08;;;;;;;29.70;19.20;;;;;;;2.98;86.03;99582.91;106235;1316;22552;-63
2021/11/19 03:02:37;;;;;;;33.50;18.10;;;;;;;2.98;85.98;99583.91;105372;1319;140468;-63
2021/11/19 03:05:12;;;;;;;31.60;19.10;;;;;;;2.97;86.06;99578.80;106187;1319;23152;-64
2021/11/19 03:07:40;;;;;;;29.00;18.10;;;;;;;2.97;86.19;99575.33;106258;1316;138096;-63
2021/11/19 03:10:15;;;;;;;28.80;18.30;;;;;;;2.97;86.13;99569.11;106031;1316;22387;-64
2021/11/19 03:12:43;;;;;;;31.90;17.70;;;;;;;2.96;86.13;99563.66;106262;1316;138880;-64
2021/11/19 03:15:15;;;;;;;32.90;19.40;;;;;;;2.96;86.33;99552.97;106220;1316;23341;-64
2021/11/19 03:17:43;;;;;;;30.40;17.50;;;;;;;2.95;86.18;99553.21;106215;1320;22584;-64
2021/11/19 03:20:13;;;;;;;30.80;18.90;;;;;;;2.97;86.40;99548.34;106174;1315;138248;-64
2021/11/19 03:22:42;;;;;;;28.60;18.10;;;;;;;2.97;86.33;99544.45;105634;1318;22480;-64
2021/11/19 03:25:12;;;;;;;27.90;17.80;;;;;;;2.98;86.42;99532.77;106124;1319;139091;-64
2021/11/19 03:27:41;;;;;;;29.90;19.00;;;;;;;2.97;86.48;99528.67;106249;1315;23326;-64
2021/11/19 03:30:18;;;;;;;27.80;18.60;;;;;;;2.98;86.37;99524.98;105873;1316;24967;-64
2021/11/19 03:32:47;;;;;;;31.40;19.00;;;;;;;2.98;86.36;99528.00;106092;1318;139590;-64
2021/11/19 03:35:15;;;;;;;39.20;19.70;;;;;;;2.97;86.46;99533.18;106183;1316;22524;-64
2021/11/19 03:37:45;;;;;;;32.90;20.00;;;;;;;2.94;86.65;99538.56;106117;1320;138999;-64
2021/11/19 03:40:16;;;;;;;32.50;20.00;;;;;;;2.95;86.49;99538.02;106231;1319;22466;-64
2021/11/19 03:42:44;;;;;;;39.50;21.50;;;;;;;2.93;86.49;99535.49;106099;1316;138189;-64
2021/11/19 03:45:17;;;;;;;32.60;20.60;;;;;;;2.93;86.49;99531.27;106212;1315;23483;-64
2021/11/19 03:47:48;;;;;;;38.30;22.70;;;;;;;2.91;86.60;99529.90;106312;1316;22622;-64
2021/11/19 03:50:23;;;;;;;33.60;21.20;;;;;;;2.91;86.74;99530.61;106136;1316;138547;-64
2021/11/19 03:52:51;;;;;;;33.70;19.50;;;;;;;2.91;86.77;99527.75;106345;1316;22481;-64
2021/11/19 03:55:23;;;;;;;31.20;19.80;;;;;;;2.90;86.72;99520.91;106119;1316;138074;-64
2021/11/19 03:57:51;;;;;;;36.20;20.20;;;;;;;2.89;86.81;99513.05;104129;1316;22743;-63
2021/11/19 04:00:50;;;;;;;40.90;21.80;;;;;;;2.89;86.77;99507.77;102174;1320;22560;-64
2021/11/19 04:03:20;;;;;;;33.30;20.60;;;;;;;2.89;86.76;99498.94;106117;1319;22509;-65
2021/11/19 04:05:49;;;;;;;40.20;22.40;;;;;;;2.90;86.98;99497.74;105583;1316;22467;-65
2021/11/19 04:08:29;;;;;;;39.90;22.00;;;;;;;2.90;86.95;99491.95;106200;1316;138100;-65
2021/11/19 04:11:02;;;;;;;34.20;22.00;;;;;;;2.92;86.93;99488.88;106203;1316;22879;-64
2021/11/19 04:13:30;;;;;;;34.60;21.60;;;;;;;2.93;86.90;99483.16;106080;1316;140219;-64
2021/11/19 04:16:02;;;;;;;46.80;21.90;;;;;;;2.95;86.97;99482.59;106123;1319;22532;-64
2021/11/19 04:18:31;;;;;;;38.90;22.60;;;;;;;2.96;87.10;99475.23;106049;1319;22413;-64
2021/11/19 04:21:00;;;;;;;38.30;22.90;;;;;;;2.98;87.06;99471.73;106014;1319;139709;-65
2021/11/19 04:23:29;;;;;;;37.10;20.60;;;;;;;2.98;86.86;99469.67;106118;1319;22388;-64
2021/11/19 04:25:58;;;;;;;33.20;21.00;;;;;;;3.00;87.05;99468.19;106003;1318;138071;-64
2021/11/19 04:28:26;;;;;;;41.60;22.20;;;;;;;3.01;87.01;99463.34;106137;1319;22314;-63
2021/11/19 04:31:13;;;;;;;35.90;21.10;;;;;;;3.02;87.04;99459.27;105595;1319;139976;-65
2021/11/19 04:33:42;;;;;;;37.00;20.30;;;;;;;3.03;86.94;99454.02;106020;1319;24020;-65
2021/11/19 04:36:10;;;;;;;33.30;20.20;;;;;;;3.03;86.92;99445.95;106134;1319;23498;-64
2021/11/19 04:38:38;;;;;;;34.90;20.70;;;;;;;3.04;86.93;99448.11;106021;1319;139003;-63
2021/11/19 04:41:21;;;;;;;36.70;22.80;;;;;;;3.05;86.81;99446.00;106092;1319;22538;-64
2021/11/19 04:43:49;;;;;;;37.10;21.10;;;;;;;3.06;86.83;99446.87;105972;1319;139691;-64
2021/11/19 04:46:17;;;;;;;40.80;22.40;;;;;;;3.07;86.84;99449.10;106092;1319;22434;-64
2021/11/19 04:48:45;;;;;;;39.20;21.90;;;;;;;3.08;86.86;99440.16;106268;1316;22461;-64
2021/11/19 04:51:17;;;;;;;34.50;21.70;;;;;;;3.09;87.07;99448.48;106105;1319;138230;-64
2021/11/19 04:53:45;;;;;;;40.40;23.00;;;;;;;3.10;86.87;99449.92;106208;1316;22467;-64
2021/11/19 04:56:14;;;;;;;44.20;24.00;;;;;;;3.10;86.71;99446.87;106140;1316;138260;-64
2021/11/19 04:58:42;;;;;;;40.20;24.40;;;;;;;3.09;86.95;99441.98;106114;1318;23287;-64
2021/11/19 05:01:13;;;;;;;41.10;25.00;;;;;;;3.10;86.80;99442.77;106056;1319;139315;-64
2021/11/19 05:04:02;;;;;;;36.20;23.00;;;;;;;3.08;86.80;99447.33;106140;1319;23183;-64
2021/11/19 05:06:31;;;;;;;33.00;22.70;;;;;;;3.10;86.95;99447.41;106064;1319;22555;-64
2021/11/19 05:09:00;;;;;;;34.80;23.20;;;;;;;3.09;86.79;99450.52;106030;1319;139133;-65
2021/11/19 05:11:38;;;;;;;39.70;22.90;;;;;;;3.09;86.83;99437.02;106071;1319;22480;-65
2021/11/19 05:14:08;;;;;;;37.70;22.00;;;;;;;3.07;86.72;99427.86;105812;1319;138836;-65
2021/11/19 05:16:37;;;;;;;39.20;22.50;;;;;;;3.06;86.63;99436.84;106117;1319;22442;-65
2021/11/19 05:19:05;;;;;;;40.70;22.00;;;;;;;3.06;86.63;99433.20;105990;1319;140812;-65
2021/11/19 05:21:33;;;;;;;37.40;22.40;;;;;;;3.06;86.66;99429.59;106100;1319;22550;-65
2021/11/19 05:24:02;;;;;;;36.50;21.70;;;;;;;3.06;86.61;99439.37;106065;1319;22446;-65
2021/11/19 05:26:30;;;;;;;35.80;21.70;;;;;;;3.06;86.63;99436.52;106003;1320;139055;-65
2021/11/19 05:28:59;;;;;;;32.60;20.20;;;;;;;3.07;86.63;99427.61;106094;1319;22414;-65
2021/11/19 05:31:27;;;;;;;36.50;21.70;;;;;;;3.07;86.73;99424.34;105963;1319;138269;-65
2021/11/19 05:33:56;;;;;;;37.60;20.60;;;;;;;3.08;86.70;99426.49;106194;1316;22590;-65
2021/11/19 05:36:25;;;;;;;29.80;19.60;;;;;;;3.10;86.74;99421.55;106197;1319;22454;-65
2021/11/19 05:38:53;;;;;;;34.00;20.20;;;;;;;3.11;86.61;99426.45;106014;1316;137789;-65
2021/11/19 05:41:23;;;;;;;34.10;20.60;;;;;;;3.12;86.75;99425.63;106217;1316;22557;-63
2021/11/19 05:43:52;;;;;;;37.20;22.10;;;;;;;3.13;86.70;99426.41;106078;1316;139493;-64
2021/11/19 05:46:46;;;;;;;34.30;21.30;;;;;;;3.11;86.56;99426.95;105864;1318;22509;-64
2021/11/19 05:49:20;;;;;;;38.70;25.70;;;;;;;3.11;86.57;99420.32;106173;1316;139444;-64
2021/11/19 05:51:54;;;;;;;42.60;27.20;;;;;;;3.11;86.67;99414.56;106164;1319;22594;-64
2021/11/19 05:54:25;;;;;;;43.90;26.70;;;;;;;3.11;86.70;99413.69;106172;1316;22383;-64
2021/11/19 05:56:54;;;;;;;44.70;25.00;;;;;;;3.11;86.77;99411.70;106207;1316;139692;-64
2021/11/19 05:59:23;;;;;;;33.90;21.80;;;;;;;3.12;86.76;99409.30;106210;1316;22571;-64
2021/11/19 06:02:14;;;;;;;33.00;20.60;;;;;;;3.11;86.62;99405.29;106155;1315;137832;-64
2021/11/19 06:05:05;;;;;;;32.30;19.10;;;;;;;3.10;86.66;99405.95;106110;1316;22479;-64
2021/11/19 06:07:51;;;;;;;29.40;18.20;;;;;;;3.07;86.83;99395.65;106139;1315;138113;-64
2021/11/19 06:10:24;;;;;;;28.20;19.50;;;;;;;3.09;86.72;99399.20;106215;1315;22470;-63
2021/11/19 06:13:02;;;;;;;34.10;20.40;;;;;;;3.09;86.78;99387.81;106033;1318;138233;-64
2021/11/19 06:15:44;;;;;;;27.90;19.30;;;;;;;3.09;86.90;99387.98;106135;1316;23569;-64
2021/11/19 06:18:25;;;;;;;32.30;20.00;;;;;;;3.08;86.83;99385.91;106212;1319;22483;-64
2021/11/19 06:20:59;;;;;;;33.50;18.40;;;;;;;3.08;87.01;99380.20;106115;1319;139439;-64
2021/11/19 06:23:35;;;;;;;28.60;18.60;;;;;;;3.08;86.82;99375.77;106164;1319;23583;-64
2021/11/19 06:26:06;;;;;;;32.70;19.10;;;;;;;3.07;86.92;99372.45;106024;1316;137982;-64
2021/11/19 06:28:41;;;;;;;30.50;19.30;;;;;;;3.06;87.03;99371.14;106092;1319;261550;-66
2021/11/19 06:31:10;;;;;;;32.70;19.50;;;;;;;3.06;86.95;99364.05;106133;1316;139303;-65
2021/11/19 06:33:40;;;;;;;30.30;20.00;;;;;;;3.06;87.17;99360.24;106210;1316;22537;-64
2021/11/19 06:36:08;;;;;;;31.00;19.70;;;;;;;3.05;87.05;99351.71;106239;1316;23094;-61
2021/11/19 06:38:37;;;;;;;30.90;20.80;;;;;;;3.05;86.96;99347.57;106054;1316;138395;-66
2021/11/19 06:41:09;;;;;;;28.60;19.60;;;;;;;3.06;87.19;99350.19;106245;1316;22427;-64
2021/11/19 06:43:52;;;;;;;34.20;20.80;;;;;;;3.06;87.08;99343.56;106101;1316;139168;-64
2021/11/19 06:46:39;;;;;;;32.20;20.00;;;;;;;3.05;87.19;99337.93;106340;1317;22575;-64
2021/11/19 06:49:36;;;;;;;31.30;20.70;;;;;;;3.05;87.33;99335.94;106204;1316;139160;-64
2021/11/19 06:52:23;;;;;;;33.90;19.20;;;;;;;3.06;87.38;99333.86;106231;1316;22569;-64
2021/11/19 06:55:13;;;;;;;29.80;19.20;;;;;;;3.05;87.52;99323.02;106128;1316;138651;-64
2021/11/19 06:58:14;;;;;;;27.50;18.30;;;;;;;3.06;87.49;99319.34;105857;1316;22643;-64
2021/11/19 07:00:43;;;;;;;29.70;19.00;;;;;;;3.06;87.56;99316.55;106103;1316;22257;-64
2021/11/19 07:03:12;;;;;;;28.20;18.80;;;;;;;3.07;87.55;99311.67;106126;1316;137631;-64
2021/11/19 07:05:41;;;;;;;31.20;19.60;;;;;;;3.05;87.83;99304.93;106188;1316;22401;-64
2021/11/19 07:08:10;;;;;;;34.70;19.50;;;;;;;3.08;87.79;99303.30;106063;1316;138063;-64
2021/11/19 07:10:39;;;;;;;31.00;20.90;;;;;;;3.08;88.16;99300.33;106199;1316;22542;-64
2021/11/19 07:13:11;;;;;;;28.60;20.10;;;;;;;3.10;87.98;99297.00;105948;1317;138622;-64
2021/11/19 07:15:39;;;;;;;32.60;20.10;;;;;;;3.13;88.05;99294.84;106100;1316;22482;-64
2021/11/19 07:18:08;;;;;;;29.10;19.60;;;;;;;3.14;88.09;99292.80;106111;1316;23169;-64
2021/11/19 07:20:36;;;;;;;28.10;19.10;;;;;;;3.16;88.10;99295.83;106434;1317;138881;-64
2021/11/19 07:23:11;;;;;;;29.90;19.40;;;;;;;3.18;88.21;99290.91;106235;1315;23416;-65
2021/11/19 07:25:40;;;;;;;29.80;18.80;;;;;;;3.19;88.29;99285.09;106196;1313;138207;-65
2021/11/19 07:28:09;;;;;;;32.60;21.00;;;;;;;3.21;88.16;99282.69;106407;1316;22473;-64
2021/11/19 07:30:59;;;;;;;27.60;19.00;;;;;;;3.21;88.31;99282.20;106265;1315;22454;-64
2021/11/19 07:33:47;;;;;;;28.90;18.80;;;;;;;3.25;88.26;99286.20;106363;1316;23540;-64
2021/11/19 07:36:26;;;;;;;28.50;19.00;;;;;;;3.27;88.51;99285.69;106333;1319;22570;-64
2021/11/19 07:39:27;;;;;;;27.00;17.70;;;;;;;3.29;88.58;99274.83;106056;1317;139206;-64
2021/11/19 07:42:06;;;;;;;30.40;19.30;;;;;;;3.30;88.41;99270.52;106304;1315;22911;-64
2021/11/19 07:44:54;;;;;;;31.10;20.90;;;;;;;3.33;88.39;99269.98;106407;1317;138188;-64
2021/11/19 07:47:35;;;;;;;30.30;19.20;;;;;;;3.33;88.42;99265.14;106493;1316;22401;-64
2021/11/19 07:50:06;;;;;;;30.90;19.30;;;;;;;3.36;88.48;99261.80;105142;1319;138423;-64
2021/11/19 07:52:36;;;;;;;28.10;19.00;;;;;;;3.38;88.70;99262.04;106318;1316;23357;-65
2021/11/19 07:55:05;;;;;;;31.00;19.80;;;;;;;3.39;88.60;99266.30;106103;1317;23115;-64
2021/11/19 07:57:34;;;;;;;30.40;19.60;;;;;;;3.41;88.85;99266.83;106321;1316;138052;-64
2021/11/19 08:00:08;;;;;;;28.00;19.80;;;;;;;3.41;88.68;99257.58;106438;1316;22537;-64
2021/11/19 08:02:48;;;;;;;28.50;18.90;;;;;;;3.42;88.75;99256.80;106306;1316;139017;-64
2021/11/19 08:05:18;;;;;;;36.60;20.40;;;;;;;3.43;88.73;99255.71;105449;1316;22466;-64
2021/11/19 08:08:20;;;;;;;29.50;19.10;;;;;;;3.46;89.06;99251.91;106307;1316;138055;-64
2021/11/19 08:11:00;;;;;;;29.80;20.50;;;;;;;3.46;88.91;99240.45;106252;1315;22411;-64
2021/11/19 08:13:29;;;;;;;28.60;20.10;;;;;;;3.49;89.02;99241.45;106185;1316;140540;-64
2021/11/19 08:15:58;;;;;;;29.40;20.70;;;;;;;3.51;89.07;99237.61;106313;1313;22477;-64
2021/11/19 08:18:32;;;;;;;29.70;20.60;;;;;;;3.52;89.11;99235.17;106324;1316;23369;-64
2021/11/19 08:21:01;;;;;;;28.30;20.20;;;;;;;3.57;89.14;99231.70;106295;1316;139145;-64
2021/11/19 08:23:46;;;;;;;34.10;21.20;;;;;;;3.58;89.27;99228.29;106474;1313;22481;-64
2021/11/19 08:26:20;;;;;;;30.60;20.50;;;;;;;3.60;89.00;99223.02;106267;1316;138185;-64
2021/11/19 08:28:48;;;;;;;35.60;21.50;;;;;;;3.62;89.05;99215.84;106402;1316;22292;-64
2021/11/19 08:31:19;;;;;;;30.30;20.30;;;;;;;3.64;89.26;99209.83;106494;1316;22489;-64
2021/11/19 08:33:48;;;;;;;33.40;21.30;;;;;;;3.65;89.15;99198.88;106441;1313;138663;-64
2021/11/19 08:36:18;;;;;;;33.30;21.60;;;;;;;3.67;89.19;99195.88;106460;1316;22487;-64
2021/11/19 08:38:46;;;;;;;35.50;21.90;;;;;;;3.70;89.43;99191.05;106391;1313;141403;-64
2021/11/19 08:41:15;;;;;;;31.90;21.00;;;;;;;3.71;89.19;99187.06;102804;1319;22599;-61
2021/11/19 08:43:44;;;;;;;33.10;20.90;;;;;;;3.72;89.34;99181.08;102180;1316;138387;-62
2021/11/19 08:46:16;;;;;;;30.20;21.20;;;;;;;3.74;89.40;99173.90;102471;1319;26618;-62
2021/11/19 08:48:49;;;;;;;30.30;20.80;;;;;;;3.75;89.35;99173.92;106497;1319;23355;-62
2021/11/19 08:51:23;;;;;;;29.60;20.80;;;;;;;3.77;89.54;99171.27;106307;1316;139588;-62
2021/11/19 08:53:54;;;;;;;31.90;21.10;;;;;;;3.79;89.75;99163.17;106488;1313;22386;-63
2021/11/19 08:56:35;;;;;;;29.00;19.90;;;;;;;3.82;89.52;99155.27;106337;1313;139835;-62
2021/11/19 08:59:03;;;;;;;29.50;20.40;;;;;;;3.84;89.60;99149.41;106370;1316;22579;-63
2021/11/19 09:01:32;;;;;;;31.60;19.90;;;;;;;3.85;89.89;99150.48;106399;1316;138487;-62
2021/11/19 09:04:00;;;;;;;29.00;21.00;;;;;;;3.86;89.72;99143.13;106410;1316;23122;-62
2021/11/19 09:06:28;;;;;;;29.50;19.30;;;;;;;3.88;89.84;99143.77;106487;1316;23362;-62
2021/11/19 09:08:56;;;;;;;33.30;22.00;;;;;;;3.91;89.55;99143.30;106401;1313;138486;-63
2021/11/19 09:11:24;;;;;;;31.40;20.80;;;;;;;3.93;89.78;99138.19;106484;1313;22520;-63
2021/11/19 09:13:54;;;;;;;32.10;20.90;;;;;;;3.95;89.89;99131.50;106330;1313;139284;-63
2021/11/19 09:16:27;;;;;;;30.00;20.60;;;;;;;3.96;89.97;99124.77;106468;1313;22497;-63
2021/11/19 09:19:07;;;;;;;32.20;21.10;;;;;;;3.99;89.90;99126.77;106482;1313;22541;-63
2021/11/19 09:21:44;;;;;;;27.00;18.70;;;;;;;4.01;89.87;99120.61;106366;1314;139763;-63
2021/11/19 09:24:19;;;;;;;29.50;19.70;;;;;;;4.05;90.20;99116.45;106374;1315;22571;-62
2021/11/19 09:27:08;;;;;;;29.80;18.70;;;;;;;4.08;90.02;99112.81;106446;1313;138229;-62
2021/11/19 09:29:43;;;;;;;28.60;19.60;;;;;;;4.11;90.13;99108.88;106355;1316;22384;-62
2021/11/19 09:32:16;;;;;;;29.10;18.80;;;;;;;4.13;90.16;99107.56;106383;1313;137983;-62
2021/11/19 09:34:47;;;;;;;27.60;19.10;;;;;;;4.14;90.32;99101.88;105558;1317;23295;-63
2021/11/19 09:37:16;;;;;;;29.50;19.50;;;;;;;4.14;90.42;99097.40;106574;1317;22525;-63
2021/11/19 09:39:45;;;;;;;27.40;18.30;;;;;;;4.17;90.12;99094.48;106248;1313;138808;-63
2021/11/19 09:42:18;;;;;;;26.40;18.20;;;;;;;4.19;89.92;99090.10;106407;1316;22526;-64
2021/11/19 09:45:11;;;;;;;27.80;18.80;;;;;;;4.21;90.12;99085.68;106320;1316;138960;-64
2021/11/19 09:48:17;;;;;;;25.90;18.70;;;;;;;4.22;90.42;99082.63;106423;1319;22390;-63
2021/11/19 09:50:51;;;;;;;26.90;18.00;;;;;;;4.24;90.17;99077.41;106427;1316;138261;-63
2021/11/19 09:53:34;;;;;;;27.20;19.30;;;;;;;4.26;90.07;99069.39;106435;1316;22438;-63
2021/11/19 09:56:53;;;;;;;29.20;19.10;;;;;;;4.30;90.28;99065.58;106316;1313;138710;-63
2021/11/19 09:59:30;;;;;;;29.40;18.90;;;;;;;4.33;90.49;99057.58;105952;1319;23205;-63
2021/11/19 10:02:23;;;;;;;25.30;17.10;;;;;;;4.32;90.45;99042.78;105889;1319;138715;-63
2021/11/19 10:05:03;;;;;;;24.50;16.70;;;;;;;4.35;90.18;99038.44;105983;1319;22412;-63
2021/11/19 10:07:50;;;;;;;27.20;17.20;;;;;;;4.37;90.07;99036.75;105101;1323;139608;-63
2021/11/19 10:10:47;;;;;;;23.90;16.20;;;;;;;4.38;90.39;99030.10;106004;1319;22432;-63
2021/11/19 10:13:20;;;;;;;28.90;17.70;;;;;;;4.39;90.28;99027.80;106069;1319;22540;-62
2021/11/19 10:15:50;;;;;;;23.90;15.40;;;;;;;4.39;90.32;99018.38;105698;1319;138720;-63
2021/11/19 10:18:39;;;;;;;26.00;16.40;;;;;;;4.40;90.26;99018.95;105310;1322;22483;-63
2021/11/19 10:21:10;;;;;;;24.30;16.80;;;;;;;4.39;89.99;99012.00;105761;1321;138169;-63
2021/11/19 10:24:21;;;;;;;24.70;15.60;;;;;;;4.41;90.06;99011.80;105985;1323;23545;-63
2021/11/19 10:31:56;;;;;;;25.20;16.50;;;;;;;4.48;90.28;98996.94;99281;1356;546044;-61
2021/11/19 10:34:40;;;;;;;30.30;16.60;;;;;;;4.48;90.21;98996.09;100817;1329;23254;-62
2021/11/19 10:37:17;;;;;;;23.10;16.80;;;;;;;4.50;90.23;98991.61;100867;1328;23804;-62
2021/11/19 10:39:52;;;;;;;31.80;17.90;;;;;;;4.50;90.40;98986.45;100946;1328;137449;-62
2021/11/19 10:43:00;;;;;;;29.40;18.20;;;;;;;4.51;90.19;98981.13;104966;1328;23145;-63
2021/11/19 10:45:52;;;;;;;26.70;17.20;;;;;;;4.53;90.43;98971.15;104830;1328;168244;-63
2021/11/19 10:48:49;;;;;;;24.00;15.10;;;;;;;4.54;90.17;98975.48;105170;1328;22479;-64
2021/11/19 10:51:19;;;;;;;23.90;15.40;;;;;;;4.55;90.66;98961.82;105124;1328;139239;-63
2021/11/19 10:54:09;;;;;;;24.70;16.60;;;;;;;4.57;90.18;98955.65;105171;1328;23067;-62
2021/11/19 10:57:32;;;;;;;21.50;15.50;;;;;;;4.59;90.48;98948.64;105991;1316;139088;-63
2021/11/19 11:00:37;;;;;;;27.60;15.60;;;;;;;4.60;90.69;98944.79;105036;1327;23195;-62
2021/11/19 11:03:27;;;;;;;23.00;14.70;;;;;;;4.65;90.64;98942.18;104920;1327;137827;-62
2021/11/19 11:06:05;;;;;;;23.60;17.80;;;;;;;4.68;90.69;98942.73;105301;1329;22466;-63
2021/11/19 11:08:38;;;;;;;28.00;18.70;;;;;;;4.68;90.36;98942.26;105153;1327;138239;-63
2021/11/19 11:11:12;;;;;;;27.80;19.50;;;;;;;4.69;90.53;98943.20;104861;1330;22526;-63
2021/11/19 11:13:53;;;;;;;34.10;21.40;;;;;;;4.71;90.67;98940.23;105173;1328;139936;-63
2021/11/19 11:16:24;;;;;;;31.70;19.60;;;;;;;4.71;90.71;98934.77;105118;1327;22504;-63
2021/11/19 11:19:10;;;;;;;32.40;19.50;;;;;;;4.73;90.63;98926.42;105129;1326;22475;-63
2021/11/19 11:22:06;;;;;;;18.20;13.10;;;;;;;4.77;90.83;98923.45;105002;1325;140302;-66
2021/11/19 11:24:46;;;;;;;17.80;13.70;;;;;;;4.78;90.70;98922.55;104904;1330;22535;-64
2021/11/19 11:27:35;;;;;;;25.50;18.50;;;;;;;4.79;90.84;98922.38;104997;1326;138770;-64
2021/11/19 11:30:09;;;;;;;26.80;19.90;;;;;;;4.80;90.78;98925.36;105115;1327;22490;-63
2021/11/19 11:32:54;;;;;;;24.20;16.40;;;;;;;4.81;90.96;98927.41;105009;1327;138791;-64
2021/11/19 11:35:36;;;;;;;21.30;13.50;;;;;;;4.83;90.82;98923.73;106051;1318;22460;-64
2021/11/19 11:38:17;;;;;;;18.20;12.90;;;;;;;4.84;90.78;98923.04;105928;1318;137967;-63
2021/11/19 11:41:12;;;;;;;19.20;12.30;;;;;;;4.83;90.41;98914.89;103323;1318;24329;-62
2021/11/19 11:43:42;;;;;;;17.00;11.30;;;;;;;4.86;90.75;98923.59;105857;1319;139763;-63
2021/11/19 11:46:31;;;;;;;19.90;11.90;;;;;;;4.87;90.70;98917.34;105918;1320;23342;-63
2021/11/19 11:49:15;;;;;;;16.00;10.80;;;;;;;4.88;90.95;98916.99;105983;1318;23231;-63
2021/11/19 11:51:59;;;;;;;16.50;11.40;;;;;;;4.90;90.80;98909.38;105683;1321;137708;-63
2021/11/19 11:54:31;;;;;;;19.00;11.70;;;;;;;4.91;90.86;98910.73;105937;1321;22665;-63
2021/11/19 11:57:20;;;;;;;21.50;13.00;;;;;;;4.94;90.99;98912.56;105918;1318;138700;-63
2021/11/19 12:00:14;;;;;;;24.30;14.70;;;;;;;4.96;90.81;98912.02;105315;1324;22548;-63